Time;durP1;ratioP1;P1;durP2;ratioP2;P2;SDS_P1;SDS_P2;PMS_P1;PMS_P2;Temp;Humidity;BMP_temperature;BMP_pressure;BME280_temperature;BME280_humidity;BME280_pressure;Samples;Min_cycle;Max_cycle;Signal;HPM_P1;HPM_P2
2022/05/14 00:00:43;;;;;;;8.82;6.50;;;10.40;99.90;;;;;;5093993;28;20036;-53
2022/05/14 00:03:09;;;;;;;10.25;7.05;;;10.40;99.90;;;;;;5094040;28;20028;-54
2022/05/14 00:05:35;;;;;;;11.55;5.72;;;10.40;99.90;;;;;;5094274;28;20490;-54
2022/05/14 00:08:01;;;;;;;13.73;6.25;;;10.30;99.90;;;;;;5084051;28;20029;-56
2022/05/14 00:10:29;;;;;;;95.43;8.65;;;10.30;99.90;;;;;;5073919;28;20039;-57
2022/05/14 00:13:04;;;;;;;52.85;7.00;;;10.20;99.90;;;;;;5075167;28;20128;-55
2022/05/14 00:15:39;;;;;;;40.55;6.45;;;10.20;99.90;;;;;;5085878;28;20039;-53
2022/05/14 00:18:07;;;;;;;14.68;6.78;;;10.10;99.90;;;;;;5084088;28;20032;-55
2022/05/14 00:20:36;;;;;;;25.95;6.35;;;10.20;99.90;;;;;;5073526;28;20024;-55
2022/05/14 00:23:02;;;;;;;9.00;6.32;;;10.20;99.90;;;;;;5078293;28;20047;-56
2022/05/14 00:25:28;;;;;;;7.18;6.18;;;10.30;99.90;;;;;;5093944;28;20463;-52
2022/05/14 00:27:54;;;;;;;6.32;5.70;;;10.30;99.90;;;;;;5085651;28;20029;-56
2022/05/14 00:30:23;;;;;;;5.60;5.10;;;10.30;99.90;;;;;;5073582;28;20028;-53
2022/05/14 00:32:50;;;;;;;6.88;5.03;;;10.30;99.90;;;;;;5088780;28;20047;-53
2022/05/14 00:35:16;;;;;;;8.65;5.05;;;10.20;99.90;;;;;;5093431;28;20360;-54
2022/05/14 00:37:42;;;;;;;5.30;4.80;;;10.30;99.90;;;;;;5091962;28;20028;-56
2022/05/14 00:40:24;;;;;;;4.82;4.30;;;10.20;99.90;;;;;;5083732;28;20464;-54
2022/05/14 00:42:52;;;;;;;8.98;4.43;;;10.10;99.90;;;;;;5074502;28;20465;-57
2022/05/14 00:45:18;;;;;;;6.05;5.45;;;10.10;99.90;;;;;;5084003;28;20074;-55
2022/05/14 00:47:48;;;;;;;8.82;6.03;;;10.10;99.90;;;;;;5089703;28;20031;-56
2022/05/14 00:50:34;;;;;;;19.13;6.90;;;10.20;99.90;;;;;;5093135;28;20396;-51
2022/05/14 00:53:25;;;;;;;13.68;7.15;;;10.30;99.90;;;;;;5092530;28;20024;-55
2022/05/14 00:55:56;;;;;;;10.65;6.88;;;10.30;99.90;;;;;;5093113;28;20050;-54
2022/05/14 00:58:54;;;;;;;58.72;8.32;;;10.30;99.90;;;;;;5084218;28;20044;-53
2022/05/14 01:01:19;;;;;;;89.75;10.52;;;10.30;99.90;;;;;;5092531;28;20094;-56
2022/05/14 01:03:46;;;;;;;145.02;11.40;;;10.40;99.90;;;;;;5083017;28;20040;-52
2022/05/14 01:06:17;;;;;;;136.73;11.27;;;10.30;99.90;;;;;;5073034;28;20028;-54
2022/05/14 01:08:44;;;;;;;116.03;10.40;;;10.30;99.90;;;;;;5072993;28;20063;-51
2022/05/14 01:11:12;;;;;;;103.22;10.50;;;10.30;99.90;;;;;;5072807;28;20032;-54
2022/05/14 01:13:38;;;;;;;63.22;9.23;;;10.30;99.90;;;;;;5073815;28;20032;-51
2022/05/14 01:16:04;;;;;;;44.92;8.75;;;10.20;99.90;;;;;;5084100;28;20031;-53
2022/05/14 01:18:33;;;;;;;78.38;9.63;;;10.20;99.90;;;;;;5084738;28;20024;-55
2022/05/14 01:21:16;;;;;;;53.67;8.77;;;10.10;99.90;;;;;;5072734;28;20379;-52
2022/05/14 01:26:41;;;;;;;12.60;7.43;;;10.00;99.90;;;;;;5092664;28;20043;-52
2022/05/14 01:29:07;;;;;;;10.68;6.75;;;9.80;99.90;;;;;;5079185;28;20024;-54
2022/05/14 01:31:34;;;;;;;14.50;6.63;;;9.80;99.90;;;;;;5071090;28;20047;-50
2022/05/14 01:34:02;;;;;;;31.40;8.73;;;9.70;99.90;;;;;;5086585;28;20055;-56
2022/05/14 01:36:28;;;;;;;26.70;7.25;;;9.70;99.90;;;;;;5092501;28;20642;-55
2022/05/14 01:38:56;;;;;;;8.07;7.10;;;9.70;99.90;;;;;;5080810;28;20036;-51
2022/05/14 01:41:22;;;;;;;27.33;6.57;;;9.80;99.90;;;;;;5075980;28;20024;-55
2022/05/14 01:43:49;;;;;;;60.05;8.55;;;9.70;99.90;;;;;;5090251;28;20024;-56
2022/05/14 01:46:14;;;;;;;91.95;8.68;;;9.70;99.90;;;;;;5083993;28;20032;-55
2022/05/14 01:48:40;;;;;;;29.20;7.07;;;9.70;99.90;;;;;;5069391;28;20043;-53
2022/05/14 01:51:06;;;;;;;74.03;8.27;;;9.60;99.90;;;;;;5092038;28;20055;-56
2022/05/14 01:53:32;;;;;;;26.02;6.93;;;9.70;99.90;;;;;;5091849;28;20020;-55
2022/05/14 01:55:58;;;;;;;7.55;6.75;;;9.60;99.90;;;;;;5090815;28;20464;-53
2022/05/14 01:58:36;;;;;;;12.00;6.03;;;9.70;99.90;;;;;;5085378;28;20111;-56
2022/05/14 02:01:07;;;;;;;14.20;7.40;;;9.60;99.90;;;;;;5071821;28;20460;-50
2022/05/14 02:03:34;;;;;;;17.88;7.28;;;9.60;99.90;;;;;;5071250;28;20120;-52
2022/05/14 02:05:59;;;;;;;29.10;7.00;;;9.60;99.90;;;;;;5071781;28;20020;-56
2022/05/14 02:08:25;;;;;;;7.80;7.00;;;9.60;99.90;;;;;;5077878;28;20106;-54
2022/05/14 02:10:51;;;;;;;41.13;7.40;;;9.60;99.90;;;;;;5091933;28;20020;-54
2022/05/14 02:13:17;;;;;;;131.85;8.65;;;9.50;99.90;;;;;;5090404;28;20024;-56
2022/05/14 02:15:43;;;;;;;50.20;6.70;;;9.40;99.90;;;;;;5091766;28;20024;-54
2022/05/14 02:18:09;;;;;;;10.02;5.95;;;9.30;99.90;;;;;;5077613;28;20024;-54
2022/05/14 02:20:35;;;;;;;19.52;5.43;;;9.30;99.90;;;;;;5091309;28;20028;-54
2022/05/14 02:23:01;;;;;;;8.30;5.40;;;9.20;99.90;;;;;;5088938;28;20518;-52
2022/05/14 02:25:28;;;;;;;6.57;5.07;;;9.20;99.90;;;;;;5071615;28;20525;-54
2022/05/14 02:27:54;;;;;;;5.60;4.82;;;9.20;99.90;;;;;;5071526;28;20028;-55
2022/05/14 02:30:20;;;;;;;12.30;5.60;;;9.10;99.90;;;;;;5076870;28;20024;-56
2022/05/14 02:32:45;;;;;;;5.78;5.28;;;9.10;99.90;;;;;;5087578;28;20020;-54
2022/05/14 02:35:11;;;;;;;6.88;5.15;;;9.10;99.90;;;;;;5071510;28;20372;-56
2022/05/14 02:37:37;;;;;;;9.13;4.70;;;9.20;99.90;;;;;;5071413;28;20033;-53
2022/05/14 02:40:03;;;;;;;8.25;4.72;;;9.20;99.90;;;;;;5072564;28;20074;-53
2022/05/14 02:42:29;;;;;;;4.82;4.35;;;9.20;99.90;;;;;;5072285;28;20376;-55
2022/05/14 02:44:55;;;;;;;10.45;4.05;;;9.10;99.90;;;;;;5081862;28;20049;-53
2022/05/14 02:47:20;;;;;;;6.82;4.68;;;9.10;99.90;;;;;;5088202;28;20016;-55
2022/05/14 02:49:46;;;;;;;5.22;4.13;;;9.10;99.90;;;;;;5072184;28;20027;-54
2022/05/14 02:52:12;;;;;;;4.93;4.45;;;9.20;99.90;;;;;;5071301;28;20048;-54
2022/05/14 02:54:38;;;;;;;4.68;3.90;;;9.20;99.90;;;;;;5090394;28;20073;-56
2022/05/14 02:57:05;;;;;;;6.75;4.32;;;9.20;99.90;;;;;;5081322;28;20032;-56
2022/05/14 02:59:31;;;;;;;5.35;4.95;;;9.20;99.90;;;;;;5071110;28;20502;-55
2022/05/14 03:01:56;;;;;;;6.13;4.15;;;9.30;99.90;;;;;;5071205;28;20104;-55
2022/05/14 03:04:26;;;;;;;8.07;4.55;;;9.30;99.90;;;;;;5087898;28;20024;-54
2022/05/14 03:06:53;;;;;;;7.15;4.72;;;9.30;99.90;;;;;;5091327;28;20028;-53
2022/05/14 03:09:18;;;;;;;5.35;4.85;;;9.30;99.90;;;;;;5091260;28;20024;-54
2022/05/14 03:11:44;;;;;;;5.03;4.53;;;9.40;99.90;;;;;;5089555;28;20024;-54
2022/05/14 03:14:11;;;;;;;9.43;5.25;;;9.50;99.90;;;;;;5076279;28;20466;-52
2022/05/14 03:16:37;;;;;;;5.78;5.28;;;9.60;99.90;;;;;;5074288;28;20025;-57
2022/05/14 03:19:03;;;;;;;10.50;6.18;;;9.60;99.90;;;;;;5086635;28;20030;-53
2022/05/14 03:21:29;;;;;;;24.15;5.45;;;9.60;99.90;;;;;;5095008;28;20044;-56
2022/05/14 03:23:54;;;;;;;6.78;5.30;;;9.70;99.90;;;;;;5086038;28;20040;-56
2022/05/14 03:26:20;;;;;;;7.45;5.05;;;9.70;99.90;;;;;;5074850;28;20025;-56
2022/05/14 03:28:46;;;;;;;6.45;5.40;;;9.70;99.90;;;;;;5074667;28;20027;-54
2022/05/14 03:31:12;;;;;;;6.68;5.30;;;9.80;99.90;;;;;;5074911;28;20024;-54
2022/05/14 03:33:38;;;;;;;5.90;5.32;;;9.80;99.90;;;;;;5084275;28;20082;-55
2022/05/14 03:36:04;;;;;;;5.70;5.03;;;9.90;99.90;;;;;;5095151;28;20727;-55
2022/05/14 03:38:30;;;;;;;9.50;5.72;;;9.90;99.90;;;;;;5093218;28;20040;-54
2022/05/14 03:40:55;;;;;;;6.78;4.95;;;10.00;99.90;;;;;;5077211;28;20032;-56
2022/05/14 03:43:21;;;;;;;8.55;6.03;;;10.00;99.90;;;;;;5081257;28;20032;-52
2022/05/14 03:45:47;;;;;;;6.68;6.07;;;10.10;99.90;;;;;;5082422;28;20035;-57
2022/05/14 03:48:12;;;;;;;8.00;5.88;;;10.10;99.90;;;;;;5077623;28;20094;-55
2022/05/14 03:50:38;;;;;;;12.85;6.20;;;10.30;99.90;;;;;;5084576;28;20035;-52
2022/05/14 03:53:04;;;;;;;6.85;5.85;;;10.40;99.90;;;;;;5077815;28;20043;-51
2022/05/14 03:55:29;;;;;;;8.25;5.53;;;10.50;99.90;;;;;;5094095;28;20024;-56
2022/05/14 03:57:55;;;;;;;5.88;5.38;;;10.50;99.90;;;;;;5092834;28;20738;-55
2022/05/14 04:00:21;;;;;;;7.45;6.50;;;10.60;99.90;;;;;;5093745;28;20506;-55
2022/05/14 04:02:47;;;;;;;8.07;5.97;;;10.70;99.90;;;;;;5090968;28;20146;-56
2022/05/14 04:05:14;;;;;;;8.45;7.63;;;10.70;99.90;;;;;;5075497;28;20016;-51
2022/05/14 04:07:40;;;;;;;12.90;6.53;;;10.80;99.90;;;;;;5083275;28;20077;-56
2022/05/14 04:10:08;;;;;;;9.27;6.97;;;11.00;99.90;;;;;;5087319;28;20368;-53
2022/05/14 04:12:33;;;;;;;9.43;7.80;;;11.20;99.90;;;;;;5093629;28;20024;-53
2022/05/14 04:14:59;;;;;;;12.77;8.05;;;11.30;99.90;;;;;;5073989;28;20472;-53
2022/05/14 04:17:25;;;;;;;9.07;8.18;;;11.30;99.90;;;;;;5073942;28;20104;-57
2022/05/14 04:19:51;;;;;;;9.10;8.18;;;11.40;99.90;;;;;;5073848;28;20129;-55
2022/05/14 04:22:16;;;;;;;13.48;8.45;;;11.40;99.90;;;;;;5091215;28;20044;-53
2022/05/14 04:24:42;;;;;;;9.55;8.57;;;11.40;99.90;;;;;;5079607;28;20154;-51
2022/05/14 04:27:08;;;;;;;11.05;8.60;;;11.50;99.90;;;;;;5073202;28;20468;-53
2022/05/14 04:29:34;;;;;;;10.00;7.47;;;11.40;99.90;;;;;;5073592;28;20158;-55
2022/05/14 04:31:59;;;;;;;15.52;8.38;;;11.50;99.90;;;;;;5073601;28;20032;-52
2022/05/14 04:34:25;;;;;;;9.13;7.85;;;11.50;99.90;;;;;;5088408;28;20032;-68
2022/05/14 04:36:51;;;;;;;6.90;6.20;;;11.60;99.90;;;;;;5091896;28;20036;-53
2022/05/14 04:39:16;;;;;;;17.15;6.70;;;11.80;99.90;;;;;;5093416;28;20024;-53
2022/05/14 04:41:42;;;;;;;9.07;7.35;;;11.80;99.90;;;;;;5093567;28;20016;-53
2022/05/14 04:44:08;;;;;;;7.82;6.97;;;11.80;99.90;;;;;;5091438;28;20028;-54
2022/05/14 04:46:35;;;;;;;10.77;7.65;;;11.80;99.90;;;;;;5093106;28;20030;-53
2022/05/14 04:49:01;;;;;;;10.68;7.57;;;11.80;99.90;;;;;;5092933;28;20035;-52
2022/05/14 04:51:27;;;;;;;9.20;7.75;;;11.90;99.90;;;;;;5090094;28;20074;-57
2022/05/14 04:53:53;;;;;;;9.20;8.30;;;11.90;99.90;;;;;;5077076;28;20036;-57
2022/05/14 04:56:18;;;;;;;9.00;7.68;;;12.10;99.90;;;;;;5072923;28;20028;-57
2022/05/14 04:58:44;;;;;;;12.30;7.68;;;12.10;99.90;;;;;;5072770;28;20032;-54
2022/05/14 05:01:10;;;;;;;13.07;6.95;;;12.20;99.90;;;;;;5068122;28;20111;-55
2022/05/14 05:03:36;;;;;;;8.88;7.88;;;12.20;99.90;;;;;;5071842;28;20505;-54
2022/05/14 05:06:02;;;;;;;8.80;7.90;;;12.30;99.90;;;;;;5093046;28;20024;-51
2022/05/14 05:08:31;;;;;;;9.10;8.20;;;12.40;99.90;;;;;;5092785;28;20026;-56
2022/05/14 05:10:57;;;;;;;10.57;8.68;;;12.40;99.90;;;;;;5092942;28;20055;-58
2022/05/14 05:13:26;;;;;;;12.88;8.65;;;12.50;99.90;;;;;;5091255;28;20073;-56
2022/05/14 05:15:52;;;;;;;9.95;8.93;;;12.50;99.90;;;;;;5078171;28;20039;-53
2022/05/14 05:18:19;;;;;;;10.23;8.43;;;12.50;99.90;;;;;;5082909;28;20027;-57
2022/05/14 05:20:48;;;;;;;19.58;9.07;;;12.50;99.90;;;;;;5071949;28;20507;-57
2022/05/14 05:23:17;;;;;;;10.23;8.68;;;12.60;99.90;;;;;;5070771;28;20020;-57
2022/05/14 05:25:44;;;;;;;11.18;8.52;;;12.60;99.90;;;;;;5070591;28;20013;-56
2022/05/14 05:28:10;;;;;;;11.68;8.45;;;12.60;99.90;;;;;;5071037;28;20067;-57
2022/05/14 05:30:36;;;;;;;11.07;8.25;;;12.70;99.90;;;;;;5071561;28;20051;-55
2022/05/14 05:33:03;;;;;;;13.00;8.52;;;12.70;99.90;;;;;;5070983;28;20012;-55
2022/05/14 05:35:29;;;;;;;13.02;9.40;;;12.80;99.90;;;;;;5071616;28;20116;-56
2022/05/14 05:37:54;;;;;;;9.50;8.35;;;13.00;99.90;;;;;;5070602;28;20095;-49
2022/05/14 05:40:20;;;;;;;8.77;6.68;;;13.20;99.90;;;;;;5070270;28;20341;-55
2022/05/14 05:42:46;;;;;;;15.77;8.43;;;13.30;99.90;;;;;;5070491;28;20028;-58
2022/05/14 05:45:15;;;;;;;12.93;7.80;;;13.40;99.90;;;;;;5070718;28;20043;-54
2022/05/14 05:47:40;;;;;;;9.95;8.10;;;13.50;99.90;;;;;;5070287;28;20031;-56
2022/05/14 05:50:07;;;;;;;13.80;8.93;;;13.50;99.90;;;;;;5073290;28;20016;-56
2022/05/14 05:52:33;;;;;;;10.23;8.98;;;13.50;99.90;;;;;;5070691;28;20101;-56
2022/05/14 05:57:44;;;;;;;12.45;6.75;;;13.80;99.90;;;;;;5071178;28;20517;-56
2022/05/14 06:00:19;;;;;;;12.88;7.50;;;14.10;99.90;;;;;;5083498;28;20404;-57
2022/05/14 06:02:46;;;;;;;12.40;6.90;;;14.20;99.90;;;;;;5071238;28;20025;-56
2022/05/14 06:05:13;;;;;;;9.68;8.18;;;14.40;99.90;;;;;;5071522;28;20404;-54
2022/05/14 06:07:39;;;;;;;11.25;9.25;;;14.50;99.90;;;;;;5071480;28;20103;-55
2022/05/14 06:10:09;;;;;;;11.60;8.27;;;14.30;99.90;;;;;;5071527;28;20578;-53
2022/05/14 06:12:38;;;;;;;12.25;7.75;;;14.50;99.90;;;;;;5071055;28;20032;-50
2022/05/14 06:15:08;;;;;;;11.70;7.75;;;14.60;99.90;;;;;;5071695;28;20039;-55
2022/05/14 06:17:34;;;;;;;11.98;7.72;;;14.70;99.90;;;;;;5071377;28;20033;-55
2022/05/14 06:20:00;;;;;;;8.23;7.43;;;14.70;99.90;;;;;;5071604;28;20078;-55
2022/05/14 06:22:25;;;;;;;9.63;8.63;;;14.80;99.90;;;;;;5070960;28;20127;-55
2022/05/14 06:24:51;;;;;;;10.48;8.50;;;14.80;99.90;;;;;;5070499;28;20058;-56
2022/05/14 06:27:17;;;;;;;12.73;9.00;;;14.90;99.90;;;;;;5091118;28;20375;-56
2022/05/14 06:29:42;;;;;;;10.65;7.70;;;15.00;99.90;;;;;;5087515;28;20028;-57
2022/05/14 06:32:08;;;;;;;10.02;7.93;;;15.10;99.90;;;;;;5072815;28;20031;-51
2022/05/14 06:34:33;;;;;;;11.63;9.13;;;15.30;99.90;;;;;;5071299;28;20056;-56
2022/05/14 06:37:00;;;;;;;12.30;8.00;;;15.60;99.90;;;;;;5071100;28;20130;-56
2022/05/14 06:39:27;;;;;;;10.05;8.30;;;15.80;99.90;;;;;;5074066;28;20050;-57
2022/05/14 06:41:52;;;;;;;14.70;8.70;;;15.90;99.90;;;;;;5091161;28;20027;-56
2022/05/14 06:44:18;;;;;;;12.45;7.72;;;16.10;99.90;;;;;;5091621;28;20033;-56
2022/05/14 06:46:44;;;;;;;12.32;8.48;;;16.40;99.90;;;;;;5091641;28;20020;-54
2022/05/14 06:49:12;;;;;;;11.68;7.85;;;16.50;99.90;;;;;;5090630;28;20031;-52
2022/05/14 06:51:39;;;;;;;8.10;7.30;;;16.70;99.90;;;;;;5074648;28;20033;-53
2022/05/14 06:54:11;;;;;;;10.65;7.40;;;16.70;99.90;;;;;;5075585;28;20033;-57
2022/05/14 06:56:41;;;;;;;11.48;8.43;;;16.80;99.90;;;;;;5075456;28;20027;-56
2022/05/14 06:59:07;;;;;;;10.38;7.25;;;16.90;99.90;;;;;;5089044;28;20028;-56
2022/05/14 07:01:36;;;;;;;10.43;8.02;;;17.00;99.90;;;;;;5095497;28;20044;-56
2022/05/14 07:06:51;;;;;;;9.63;7.53;;;17.40;99.90;;;;;;5095810;28;20035;-56
2022/05/14 07:09:23;;;;;;;13.48;7.65;;;17.50;99.90;;;;;;5080659;28;20025;-56
2022/05/14 07:11:52;;;;;;;10.00;7.03;;;17.70;99.90;;;;;;5075275;28;20040;-52
2022/05/14 07:14:18;;;;;;;9.05;6.03;;;17.50;99.90;;;;;;5075125;28;20034;-56
2022/05/14 07:16:45;;;;;;;11.13;6.55;;;17.70;99.90;;;;;;5074906;28;20086;-55
2022/05/14 07:19:11;;;;;;;5.18;3.83;;;17.90;99.90;;;;;;5087936;28;20024;-52
2022/05/14 07:21:39;;;;;;;6.97;4.13;;;18.10;99.90;;;;;;5095078;28;20130;-56
2022/05/14 07:24:07;;;;;;;5.00;3.28;;;18.20;99.90;;;;;;5095087;28;20020;-52
2022/05/14 07:26:39;;;;;;;8.63;4.57;;;18.10;99.90;;;;;;5095124;28;20012;-51
2022/05/14 07:29:09;;;;;;;20.42;9.80;;;18.20;99.90;;;;;;5082410;28;20057;-51
2022/05/14 07:31:36;;;;;;;6.72;3.20;;;18.10;98.40;;;;;;5074675;28;20024;-54
2022/05/14 07:34:03;;;;;;;32.75;4.22;;;18.00;98.80;;;;;;5074625;28;20555;-56
2022/05/14 07:36:33;;;;;;;12.60;3.95;;;18.10;95.10;;;;;;5074483;28;20082;-57
2022/05/14 07:39:03;;;;;;;23.30;3.88;;;18.40;97.10;;;;;;5076070;28;20056;-56
2022/05/14 07:41:29;;;;;;;9.80;3.17;;;18.40;95.70;;;;;;5074406;28;20025;-55
2022/05/14 07:43:57;;;;;;;13.50;3.50;;;18.60;95.00;;;;;;5074344;28;20029;-55
2022/05/14 07:46:27;;;;;;;6.55;2.83;;;18.50;94.80;;;;;;5074396;28;20023;-55
2022/05/14 07:48:55;;;;;;;7.95;3.08;;;18.50;94.10;;;;;;5091468;28;20099;-57
2022/05/14 07:51:21;;;;;;;6.45;2.90;;;18.50;94.10;;;;;;5094645;28;20020;-54
2022/05/14 07:53:47;;;;;;;12.20;3.22;;;18.50;94.00;;;;;;5094563;28;20028;-56
2022/05/14 07:56:13;;;;;;;8.60;3.28;;;18.50;96.10;;;;;;5094464;28;20371;-54
2022/05/14 07:58:40;;;;;;;6.55;2.42;;;18.50;96.50;;;;;;5079353;28;20051;-54
2022/05/14 08:01:06;;;;;;;3.55;2.70;;;18.30;91.70;;;;;;5074985;28;20570;-57
2022/05/14 08:03:32;;;;;;;6.00;3.22;;;18.50;91.40;;;;;;5073109;28;20033;-56
2022/05/14 08:05:58;;;;;;;7.88;2.97;;;18.70;94.70;;;;;;5074260;28;20025;-56
2022/05/14 08:08:25;;;;;;;11.25;4.30;;;18.90;94.30;;;;;;5086389;28;20154;-52
2022/05/14 08:10:51;;;;;;;14.77;3.65;;;19.00;94.00;;;;;;5094356;28;20440;-57
2022/05/14 08:13:19;;;;;;;8.32;3.90;;;19.00;93.30;;;;;;5094238;28;20467;-56
2022/05/14 08:15:46;;;;;;;9.52;3.80;;;18.70;93.50;;;;;;5094014;28;20024;-52
2022/05/14 08:18:12;;;;;;;7.22;3.55;;;18.80;93.80;;;;;;5083293;28;20039;-54
2022/05/14 08:20:39;;;;;;;6.45;3.88;;;18.90;94.50;;;;;;5073825;28;20021;-55
2022/05/14 08:25:51;;;;;;;8.70;3.40;;;19.00;94.30;;;;;;5094169;28;20173;-57
2022/05/14 08:28:17;;;;;;;18.88;4.40;;;19.20;94.20;;;;;;5094005;28;20114;-54
2022/05/14 08:30:43;;;;;;;7.80;4.68;;;19.00;93.50;;;;;;5093624;28;20024;-57
2022/05/14 08:33:09;;;;;;;5.20;4.10;;;19.20;93.40;;;;;;5089161;28;20478;-56
2022/05/14 08:35:36;;;;;;;9.65;4.40;;;19.30;92.60;;;;;;5073659;28;20042;-54
2022/05/14 08:38:02;;;;;;;9.70;3.45;;;19.30;92.20;;;;;;5073740;28;20074;-56
2022/05/14 08:40:31;;;;;;;4.25;2.83;;;19.50;92.80;;;;;;5073592;28;20028;-58
2022/05/14 08:43:01;;;;;;;14.10;2.88;;;19.60;89.90;;;;;;5075904;28;20020;-55
2022/05/14 08:45:29;;;;;;;6.28;2.75;;;19.50;90.90;;;;;;5093539;28;20540;-55
2022/05/14 08:48:05;;;;;;;8.15;2.80;;;19.90;91.40;;;;;;5092448;28;20471;-56
2022/05/14 08:50:34;;;;;;;9.40;2.67;;;20.10;91.50;;;;;;5093452;28;20020;-57
2022/05/14 08:53:03;;;;;;;11.55;2.85;;;20.40;90.80;;;;;;5090685;28;20098;-55
2022/05/14 08:55:39;;;;;;;6.88;2.70;;;20.50;88.80;;;;;;5074157;28;20020;-56
2022/05/14 08:58:29;;;;;;;7.95;2.17;;;20.80;86.20;;;;;;5073092;28;20020;-52
2022/05/14 09:01:01;;;;;;;9.38;2.55;;;21.00;88.50;;;;;;5073026;28;20629;-55
2022/05/14 09:03:27;;;;;;;11.30;2.08;;;21.30;86.20;;;;;;5079391;28;20021;-55
2022/05/14 09:05:55;;;;;;;9.50;2.47;;;21.30;82.90;;;;;;5093011;28;20020;-54
2022/05/14 09:08:21;;;;;;;6.07;1.80;;;21.70;85.40;;;;;;5092000;28;20024;-56
2022/05/14 09:10:59;;;;;;;9.73;2.05;;;21.50;75.40;;;;;;5092950;28;20340;-55
2022/05/14 09:13:25;;;;;;;9.23;2.40;;;21.70;76.80;;;;;;5073075;28;20048;-56
2022/05/14 09:15:57;;;;;;;2.95;1.65;;;21.50;72.10;;;;;;5072532;28;20021;-55
2022/05/14 09:18:32;;;;;;;4.28;1.73;;;21.40;72.40;;;;;;5072841;28;20491;-56
2022/05/14 09:21:08;;;;;;;6.20;2.72;;;21.70;80.50;;;;;;5072514;28;20119;-55
2022/05/14 09:23:44;;;;;;;4.10;1.88;;;22.00;77.20;;;;;;5085832;28;20504;-54
2022/05/14 09:26:38;;;;;;;7.88;1.85;;;22.20;73.10;;;;;;5052539;28;20031;-56
2022/05/14 09:29:29;;;;;;;6.32;2.10;;;22.10;79.30;;;;;;5051131;28;20120;-55
2022/05/14 09:32:05;;;;;;;5.82;2.33;;;22.00;77.00;;;;;;5066124;28;20020;-52
2022/05/14 09:34:34;;;;;;;6.55;2.20;;;21.50;76.20;;;;;;5090933;28;20083;-56
2022/05/14 09:37:11;;;;;;;8.05;1.95;;;21.50;77.90;;;;;;5082250;28;20028;-56
2022/05/14 09:39:39;;;;;;;4.00;1.73;;;21.80;79.30;;;;;;5072246;28;20033;-52
2022/05/14 09:42:06;;;;;;;11.00;2.03;;;22.00;77.20;;;;;;5085905;28;20028;-57
2022/05/14 09:44:46;;;;;;;5.28;2.15;;;22.40;78.70;;;;;;5091906;28;20105;-57
2022/05/14 09:47:23;;;;;;;7.05;2.33;;;22.70;76.70;;;;;;5092237;28;20024;-55
2022/05/14 09:50:02;;;;;;;8.88;2.70;;;22.90;78.10;;;;;;5090289;28;20105;-57
2022/05/14 09:52:34;;;;;;;4.18;1.88;;;22.90;76.20;;;;;;5088273;28;20039;-56
2022/05/14 09:55:04;;;;;;;4.85;1.80;;;22.80;75.00;;;;;;5091889;28;20038;-57
2022/05/14 09:57:41;;;;;;;9.93;2.40;;;22.70;76.90;;;;;;5092094;28;20110;-54
2022/05/14 10:00:25;;;;;;;6.45;1.92;;;22.70;71.40;;;;;;5055163;28;20439;-56
2022/05/14 10:02:57;;;;;;;5.38;2.20;;;23.10;70.00;;;;;;5041270;28;20540;-56
2022/05/14 10:05:41;;;;;;;9.07;1.95;;;23.10;69.60;;;;;;5043761;28;22343;-56
2022/05/14 10:08:09;;;;;;;6.63;2.25;;;23.60;65.70;;;;;;5040690;28;20033;-57
2022/05/14 10:11:12;;;;;;;7.38;2.03;;;22.80;66.60;;;;;;5040755;28;20124;-56
2022/05/14 10:14:09;;;;;;;9.82;1.90;;;22.70;66.30;;;;;;5041000;28;20597;-56
2022/05/14 10:17:02;;;;;;;3.50;1.77;;;22.80;66.00;;;;;;5040673;28;20120;-57
2022/05/14 10:19:45;;;;;;;5.88;2.08;;;23.10;66.30;;;;;;5041057;28;20029;-57
2022/05/14 10:22:26;;;;;;;8.27;2.20;;;22.90;62.70;;;;;;5039051;28;20167;-56
2022/05/14 10:28:38;;;;;;;8.50;2.03;;;23.80;64.80;;;;;;5038533;28;20044;-58
2022/05/14 10:31:20;;;;;;;11.73;2.30;;;23.80;66.30;;;;;;5041159;28;20025;-57
2022/05/14 10:33:48;;;;;;;6.65;2.10;;;24.30;61.20;;;;;;5039602;28;20064;-58
2022/05/14 10:36:33;;;;;;;7.13;2.50;;;24.70;65.20;;;;;;5039637;28;20047;-57
2022/05/14 10:39:29;;;;;;;4.15;1.63;;;24.90;61.30;;;;;;5038768;28;20195;-57
2022/05/14 10:42:06;;;;;;;7.93;1.55;;;24.90;64.50;;;;;;5040737;28;20484;-55
2022/05/14 10:45:04;;;;;;;4.25;1.90;;;24.30;65.90;;;;;;5039346;28;20416;-58
2022/05/14 10:47:30;;;;;;;9.65;2.45;;;24.30;63.40;;;;;;5031473;28;20037;-58
2022/05/14 10:50:06;;;;;;;4.28;1.70;;;24.70;63.40;;;;;;5041732;28;20356;-57
2022/05/14 10:52:32;;;;;;;10.05;2.55;;;24.90;61.80;;;;;;5048152;28;20142;-57
2022/05/14 10:54:58;;;;;;;5.93;2.20;;;25.20;62.70;;;;;;5059032;28;20538;-57
2022/05/14 10:57:53;;;;;;;4.22;1.73;;;25.40;57.00;;;;;;5059272;28;20052;-58
2022/05/14 11:00:31;;;;;;;6.82;1.85;;;24.90;59.50;;;;;;5051352;28;20045;-55
2022/05/14 11:03:11;;;;;;;6.38;2.00;;;25.10;59.80;;;;;;5040050;28;20031;-57
2022/05/14 11:06:05;;;;;;;11.10;2.13;;;24.90;58.30;;;;;;5039498;28;20070;-57
2022/05/14 11:08:37;;;;;;;9.10;2.03;;;25.20;58.20;;;;;;5038912;28;20029;-58
2022/05/14 11:11:21;;;;;;;8.23;2.27;;;25.10;58.90;;;;;;5041354;28;20114;-55
2022/05/14 11:13:55;;;;;;;5.25;2.05;;;24.70;59.90;;;;;;5039588;28;20083;-57
2022/05/14 11:16:21;;;;;;;6.15;1.90;;;24.40;60.50;;;;;;5040579;28;20071;-57
2022/05/14 11:18:53;;;;;;;5.57;2.00;;;24.40;61.70;;;;;;5039864;28;20110;-56
2022/05/14 11:21:32;;;;;;;5.63;2.03;;;24.70;64.20;;;;;;5042921;28;20048;-58
2022/05/14 11:24:00;;;;;;;7.07;2.72;;;24.60;58.50;;;;;;5038587;28;20071;-57
2022/05/14 11:26:26;;;;;;;4.53;2.10;;;25.10;58.50;;;;;;5039678;28;20037;-57
2022/05/14 11:29:09;;;;;;;3.83;1.70;;;25.40;61.40;;;;;;5038445;28;20060;-58
2022/05/14 11:31:39;;;;;;;6.47;2.08;;;25.70;59.90;;;;;;5040912;28;20076;-57
2022/05/14 11:34:17;;;;;;;5.88;2.25;;;25.40;55.10;;;;;;5038371;28;20102;-57
2022/05/14 11:37:01;;;;;;;4.15;1.75;;;25.50;56.40;;;;;;5040091;28;20057;-55
2022/05/14 11:39:30;;;;;;;4.97;1.67;;;26.30;54.30;;;;;;5043129;28;20028;-57
2022/05/14 11:42:11;;;;;;;15.55;2.03;;;26.50;55.40;;;;;;5044209;28;20404;-58
2022/05/14 11:44:46;;;;;;;2.72;1.73;;;26.00;54.50;;;;;;5044142;28;20518;-57
2022/05/14 11:47:42;;;;;;;6.35;2.22;;;26.10;57.90;;;;;;5044223;28;20037;-57
2022/05/14 11:50:10;;;;;;;3.38;2.33;;;25.80;55.10;;;;;;5045461;28;20044;-56
2022/05/14 11:53:23;;;;;;;4.90;1.77;;;25.60;55.50;;;;;;5043310;28;20064;-58
2022/05/14 11:55:52;;;;;;;9.60;1.80;;;26.70;57.10;;;;;;5030727;28;20053;-58
2022/05/14 11:58:39;;;;;;;11.25;2.22;;;26.90;55.50;;;;;;5045201;28;20388;-57
2022/05/14 12:01:09;;;;;;;5.47;2.00;;;26.40;56.20;;;;;;5056855;28;20060;-56
2022/05/14 12:03:40;;;;;;;8.13;2.40;;;26.20;52.50;;;;;;5062921;28;20042;-58
2022/05/14 12:06:27;;;;;;;4.88;2.30;;;26.30;54.80;;;;;;5061961;28;20039;-58
2022/05/14 12:09:02;;;;;;;4.68;1.77;;;26.40;53.60;;;;;;5043546;28;20680;-58
2022/05/14 12:11:35;;;;;;;2.88;1.58;;;27.40;53.20;;;;;;5043393;28;20033;-58
2022/05/14 12:14:11;;;;;;;5.97;3.10;;;28.30;52.20;;;;;;5044133;28;20099;-58
2022/05/14 12:16:47;;;;;;;4.97;1.65;;;28.20;50.00;;;;;;5043496;28;20484;-59
2022/05/14 12:19:26;;;;;;;6.13;1.42;;;29.10;48.70;;;;;;5046101;28;20033;-59
2022/05/14 12:22:16;;;;;;;6.28;1.73;;;31.40;45.20;;;;;;5042951;28;20041;-59
2022/05/14 12:24:58;;;;;;;3.97;1.58;;;32.40;46.00;;;;;;5053565;28;20483;-59
2022/05/14 12:27:25;;;;;;;11.70;1.80;;;31.60;47.00;;;;;;5073785;28;20024;-59
2022/05/14 12:30:14;;;;;;;5.78;1.60;;;31.50;43.80;;;;;;5076476;28;20662;-58
2022/05/14 12:35:31;;;;;;;4.35;2.15;;;31.50;41.10;;;;;;5073494;28;20031;-59
2022/05/14 12:37:59;;;;;;;9.27;1.95;;;31.50;40.40;;;;;;5072909;28;20468;-59
2022/05/14 12:40:27;;;;;;;10.98;2.00;;;32.00;39.80;;;;;;5073365;28;20028;-57
2022/05/14 12:42:53;;;;;;;4.63;1.42;;;33.10;40.90;;;;;;5073350;28;20024;-58
2022/05/14 12:45:30;;;;;;;8.98;1.80;;;34.70;37.80;;;;;;5073325;28;20037;-59
2022/05/14 12:48:00;;;;;;;9.18;1.75;;;32.50;39.30;;;;;;5072845;28;20483;-59
2022/05/14 12:50:30;;;;;;;18.75;3.38;;;31.90;40.70;;;;;;5073059;28;20025;-59
2022/05/14 12:53:11;;;;;;;31.13;7.32;;;31.20;43.70;;;;;;5073084;28;20036;-60
2022/05/14 12:55:39;;;;;;;5.05;1.42;;;31.60;43.10;;;;;;5073157;28;20044;-60
2022/05/14 12:58:06;;;;;;;28.65;5.93;;;32.40;39.10;;;;;;5073257;28;20372;-60
2022/05/14 13:00:38;;;;;;;4.30;2.15;;;32.50;40.80;;;;;;5072986;28;20066;-59
2022/05/14 13:03:19;;;;;;;7.93;2.50;;;32.90;39.70;;;;;;5073215;28;20024;-59
2022/05/14 13:05:59;;;;;;;2.63;1.42;;;31.60;39.70;;;;;;5072745;28;20028;-59
2022/05/14 13:08:26;;;;;;;4.85;1.40;;;31.30;41.80;;;;;;5073024;28;20045;-60
2022/05/14 13:10:59;;;;;;;10.50;1.70;;;33.60;40.10;;;;;;5072352;28;20020;-60
2022/05/14 13:13:37;;;;;;;7.95;2.08;;;33.20;37.80;;;;;;5071464;28;20085;-60
2022/05/14 13:16:29;;;;;;;4.22;1.70;;;32.80;39.70;;;;;;5071188;28;20559;-60
2022/05/14 13:19:17;;;;;;;9.65;1.77;;;32.20;38.40;;;;;;5082253;28;20031;-61